Air Supply — WDE6069 — position and weather

sailwx.info

Track history (hours):
 
Tides and Currents Weather Stations Pressure Air Temp Water Temp Dewpoint Dewpoint Depression Visibility Wind Speed Wind Dir Waves Ship Positions

Air Supply

Owner: Knowles, Clay A, Fruita, CO. More information available from US FCC via Universal Licensing System and Coast Guard Vessel Documentation Center.

Last reported at 2017-Nov-20 00:30 UTC. Time now 2017-Nov-21 23:14 UTC.
Position N 30°03' W 093°16'.

Length 36 m; draft 3 m.

Type: Towing. MMSI: 367375720.

Date/timePositionNaut miles runAvg speedWind from/ knotsBaromVisibWave heightAir tempDewpointWater temp
2017-Nov-20 00:30N 30°03' W 093°16'3 5.1
2017-Nov-20 00:00N 30°01' W 093°14'3 5.7
2017-Nov-19 23:30N 29°59' W 093°12'3 6.0
2017-Nov-19 23:00N 29°57' W 093°10'0 0.7
2017-Nov-19 22:30N 29°56' W 093°10'0 0.0
2017-Nov-19 22:00N 29°56' W 093°10'0 0.0
2017-Nov-19 21:30N 29°56' W 093°10'0 0.0
2017-Nov-19 21:00N 29°56' W 093°10'0 0.0
2017-Nov-19 20:30N 29°56' W 093°10'0 0.2
2017-Nov-19 20:00N 29°56' W 093°10'0 0.0
2017-Nov-19 19:30N 29°56' W 093°10'0 0.1
2017-Nov-19 19:00N 29°56' W 093°10'0 0.1
2017-Nov-19 18:30N 29°56' W 093°10'0 0.0
2017-Nov-19 18:00N 29°56' W 093°10'0 0.0
2017-Nov-19 17:30N 29°56' W 093°10'0 0.0
2017-Nov-19 17:00N 29°56' W 093°10'0 0.0
2017-Nov-19 16:30N 29°56' W 093°10'0 0.1
2017-Nov-19 16:00N 29°56' W 093°10'0 0.1
2017-Nov-19 15:30N 29°56' W 093°10'0 0.0
2017-Nov-19 15:00N 29°56' W 093°10'2 3.5
2017-Nov-19 14:30N 29°56' W 093°08'3 5.7
2017-Nov-19 14:00N 29°56' W 093°04'37 1.5
2017-Nov-18 13:52N 29°51' W 092°22'2 5.3
2017-Nov-18 13:30N 29°50' W 092°19'2 5.0
2017-Nov-18 13:00N 29°49' W 092°17'3 5.8
2017-Nov-18 12:30N 29°48' W 092°14'2 3.4
2017-Nov-18 12:00N 29°47' W 092°12'1 2.6
2017-Nov-18 11:30N 29°47' W 092°11'1 1.2
2017-Nov-18 11:00N 29°47' W 092°10'3 5.5
2017-Nov-18 10:30N 29°47' W 092°07'2 4.9
2017-Nov-18 10:00N 29°48' W 092°04'2 3.6
2017-Nov-18 09:30N 29°49' W 092°02'  
2017-Nov-12 00:59N 29°51' W 091°55'15 4.6
2017-Nov-11 21:39N 29°47' W 092°12'1 3.6
2017-Nov-11 21:29N 29°47' W 092°13'1 2.8
2017-Nov-11 20:59N 29°48' W 092°14'0 0.6
2017-Nov-11 20:29N 29°48' W 092°15'0 0.0
2017-Nov-11 19:59N 29°48' W 092°15'0 0.0
2017-Nov-11 19:29N 29°48' W 092°15'0 0.0
2017-Nov-11 18:59N 29°48' W 092°15'0 0.0
2017-Nov-11 18:29N 29°48' W 092°15'0 0.0
2017-Nov-11 17:59N 29°48' W 092°15'1 1.0
2017-Nov-11 17:29N 29°48' W 092°15'0 0.2
2017-Nov-11 16:59N 29°48' W 092°15'0 0.6
2017-Nov-11 16:29N 29°48' W 092°16'90 3.3
2017-Nov-10 13:07N 30°01' W 093°59'0 0.0
2017-Nov-10 12:08N 30°01' W 093°59'0 0.0
2017-Nov-10 10:14N 30°01' W 093°59'0 0.0
2017-Nov-10 09:54N 30°01' W 093°59'0 0.0
2017-Nov-10 08:38N 30°01' W 093°59'0 0.0
2017-Nov-10 08:10N 30°01' W 093°59'0 0.0
2017-Nov-10 07:55N 30°01' W 093°59'0 0.0
2017-Nov-10 07:18N 30°01' W 093°59'0 0.0
2017-Nov-10 06:10N 30°01' W 093°59'0 0.0
2017-Nov-10 06:00N 30°01' W 093°59'0 0.0
2017-Nov-10 04:54N 30°01' W 093°59'0 0.0
2017-Nov-10 04:30N 30°01' W 093°59'0 0.0
2017-Nov-10 02:50N 30°01' W 093°59'  
Track history (hours):
 
Tides and Currents Weather Stations Pressure Air Temp Water Temp Dewpoint Dewpoint Depression Visibility Wind Speed Wind Dir Waves Ship Positions

Air Supply

Owner: Knowles, Clay A, Fruita, CO. More information available from US FCC via Universal Licensing System and Coast Guard Vessel Documentation Center.

Last reported at 2017-Nov-20 00:30 UTC. Time now 2017-Nov-21 23:14 UTC.
Position N 30°03' W 093°16'.

Length 36 m; draft 3 m.

Type: Towing. MMSI: 367375720.

Date/timePositionNaut miles runAvg speedWind from/ knotsBaromVisibWave heightAir tempDewpointWater temp
2017-Nov-20 00:30N 30°03' W 093°16'3 5.1
2017-Nov-20 00:00N 30°01' W 093°14'3 5.7
2017-Nov-19 23:30N 29°59' W 093°12'3 6.0
2017-Nov-19 23:00N 29°57' W 093°10'0 0.7
2017-Nov-19 22:30N 29°56' W 093°10'0 0.0
2017-Nov-19 22:00N 29°56' W 093°10'0 0.0
2017-Nov-19 21:30N 29°56' W 093°10'0 0.0
2017-Nov-19 21:00N 29°56' W 093°10'0 0.0
2017-Nov-19 20:30N 29°56' W 093°10'0 0.2
2017-Nov-19 20:00N 29°56' W 093°10'0 0.0
2017-Nov-19 19:30N 29°56' W 093°10'0 0.1
2017-Nov-19 19:00N 29°56' W 093°10'0 0.1
2017-Nov-19 18:30N 29°56' W 093°10'0 0.0
2017-Nov-19 18:00N 29°56' W 093°10'0 0.0
2017-Nov-19 17:30N 29°56' W 093°10'0 0.0
2017-Nov-19 17:00N 29°56' W 093°10'0 0.0
2017-Nov-19 16:30N 29°56' W 093°10'0 0.1
2017-Nov-19 16:00N 29°56' W 093°10'0 0.1
2017-Nov-19 15:30N 29°56' W 093°10'0 0.0
2017-Nov-19 15:00N 29°56' W 093°10'2 3.5
2017-Nov-19 14:30N 29°56' W 093°08'3 5.7
2017-Nov-19 14:00N 29°56' W 093°04'37 1.5
2017-Nov-18 13:52N 29°51' W 092°22'2 5.3
2017-Nov-18 13:30N 29°50' W 092°19'2 5.0
2017-Nov-18 13:00N 29°49' W 092°17'3 5.8
2017-Nov-18 12:30N 29°48' W 092°14'2 3.4
2017-Nov-18 12:00N 29°47' W 092°12'1 2.6
2017-Nov-18 11:30N 29°47' W 092°11'1 1.2
2017-Nov-18 11:00N 29°47' W 092°10'3 5.5
2017-Nov-18 10:30N 29°47' W 092°07'2 4.9
2017-Nov-18 10:00N 29°48' W 092°04'2 3.6
2017-Nov-18 09:30N 29°49' W 092°02'  
2017-Nov-12 00:59N 29°51' W 091°55'15 4.6
2017-Nov-11 21:39N 29°47' W 092°12'1 3.6
2017-Nov-11 21:29N 29°47' W 092°13'1 2.8
2017-Nov-11 20:59N 29°48' W 092°14'0 0.6
2017-Nov-11 20:29N 29°48' W 092°15'0 0.0
2017-Nov-11 19:59N 29°48' W 092°15'0 0.0
2017-Nov-11 19:29N 29°48' W 092°15'0 0.0
2017-Nov-11 18:59N 29°48' W 092°15'0 0.0
2017-Nov-11 18:29N 29°48' W 092°15'0 0.0
2017-Nov-11 17:59N 29°48' W 092°15'1 1.0
2017-Nov-11 17:29N 29°48' W 092°15'0 0.2
2017-Nov-11 16:59N 29°48' W 092°15'0 0.6
2017-Nov-11 16:29N 29°48' W 092°16'90 3.3
2017-Nov-10 13:07N 30°01' W 093°59'0 0.0
2017-Nov-10 12:08N 30°01' W 093°59'0 0.0
2017-Nov-10 10:14N 30°01' W 093°59'0 0.0
2017-Nov-10 09:54N 30°01' W 093°59'0 0.0
2017-Nov-10 08:38N 30°01' W 093°59'0 0.0
2017-Nov-10 08:10N 30°01' W 093°59'0 0.0
2017-Nov-10 07:55N 30°01' W 093°59'0 0.0
2017-Nov-10 07:18N 30°01' W 093°59'0 0.0
2017-Nov-10 06:10N 30°01' W 093°59'0 0.0
2017-Nov-10 06:00N 30°01' W 093°59'0 0.0
2017-Nov-10 04:54N 30°01' W 093°59'0 0.0
2017-Nov-10 04:30N 30°01' W 093°59'0 0.0
2017-Nov-10 02:50N 30°01' W 093°59'  

Dump ship's entire track history